Time;durP1;ratioP1;P1;durP2;ratioP2;P2;SDS_P1;SDS_P2;PMS_P1;PMS_P2;Temp;Humidity;BMP_temperature;BMP_pressure;BME280_temperature;BME280_humidity;BME280_pressure;Samples;Min_cycle;Max_cycle;Signal;HPM_P1;HPM_P2
2021/08/12 00:02:01;;;;;;;1.03;0.93;;;21.00;59.40;;;;;;5075169;28;20029;-38
2021/08/12 00:04:28;;;;;;;0.95;0.85;;;21.00;59.40;;;;;;5063958;28;20033;-37
2021/08/12 00:06:54;;;;;;;0.85;0.80;;;20.90;59.60;;;;;;5065109;28;20023;-37
2021/08/12 00:09:20;;;;;;;0.73;0.70;;;20.90;59.60;;;;;;5064705;28;20032;-37
2021/08/12 00:11:47;;;;;;;1.08;0.98;;;20.90;59.10;;;;;;5065047;28;20084;-35
2021/08/12 00:14:14;;;;;;;1.00;0.90;;;20.90;59.40;;;;;;5065146;28;20035;-35
2021/08/12 00:16:40;;;;;;;1.00;0.85;;;20.90;59.40;;;;;;5065014;28;20101;-35
2021/08/12 00:19:11;;;;;;;1.00;0.90;;;20.80;59.50;;;;;;5064695;28;20037;-35
2021/08/12 00:21:38;;;;;;;1.10;0.90;;;20.80;59.60;;;;;;5064739;28;20075;-35
2021/08/12 00:24:04;;;;;;;1.38;1.02;;;20.80;59.70;;;;;;5064557;28;20040;-35
2021/08/12 00:26:31;;;;;;;1.27;1.17;;;20.80;59.60;;;;;;5064695;28;20043;-35
2021/08/12 00:28:57;;;;;;;1.15;1.05;;;20.80;59.90;;;;;;5064416;28;20056;-35
2021/08/12 00:31:23;;;;;;;0.90;0.90;;;20.70;59.90;;;;;;5069489;28;20031;-36
2021/08/12 00:33:49;;;;;;;0.95;0.85;;;20.70;59.90;;;;;;5084739;28;20035;-37
2021/08/12 00:36:15;;;;;;;1.00;0.98;;;20.70;59.80;;;;;;5084670;28;20056;-40
2021/08/12 00:38:42;;;;;;;1.25;0.95;;;20.70;59.80;;;;;;5069277;28;20059;-36
2021/08/12 00:41:10;;;;;;;0.80;0.80;;;20.70;59.70;;;;;;5064458;28;20522;-37
2021/08/12 00:43:36;;;;;;;1.15;0.90;;;20.60;59.80;;;;;;5062966;28;20040;-37
2021/08/12 00:46:02;;;;;;;1.10;1.00;;;20.60;59.70;;;;;;5064594;28;20126;-37
2021/08/12 00:48:28;;;;;;;1.30;0.98;;;20.60;59.90;;;;;;5064077;28;20032;-37
2021/08/12 00:50:54;;;;;;;0.98;0.90;;;20.50;59.70;;;;;;5064285;28;20052;-38
2021/08/12 00:53:20;;;;;;;0.85;0.80;;;20.50;59.60;;;;;;5067018;28;20029;-37
2021/08/12 00:55:46;;;;;;;1.23;1.00;;;20.50;59.70;;;;;;5063972;28;20028;-36
2021/08/12 00:58:14;;;;;;;1.08;0.95;;;20.50;59.50;;;;;;5063864;28;20027;-37
2021/08/12 01:00:41;;;;;;;1.20;1.10;;;20.50;59.70;;;;;;5064326;28;20098;-38
2021/08/12 01:03:10;;;;;;;1.98;1.02;;;20.50;59.70;;;;;;5083301;28;20028;-37
2021/08/12 01:05:53;;;;;;;1.05;0.85;;;20.40;59.70;;;;;;5084169;28;20036;-37
2021/08/12 01:08:39;;;;;;;0.80;0.80;;;20.40;59.50;;;;;;5075004;28;20051;-37
2021/08/12 01:11:11;;;;;;;1.10;0.98;;;20.40;59.70;;;;;;5063890;28;20103;-37
2021/08/12 01:14:05;;;;;;;1.00;0.80;;;20.40;60.20;;;;;;5063943;28;20029;-37
2021/08/12 01:16:32;;;;;;;1.13;0.98;;;20.30;60.30;;;;;;5062724;28;20035;-36
2021/08/12 01:18:59;;;;;;;;;;;20.30;60.20;;;;;;5079560;28;20025;-37
2021/08/12 01:21:50;;;;;;;1.45;1.30;;;20.30;62.00;;;;;;5095810;28;19912;-36
2021/08/12 01:24:16;;;;;;;1.15;1.05;;;20.30;59.80;;;;;;5062351;28;20051;-36
2021/08/12 01:26:44;;;;;;;1.00;0.80;;;20.20;59.70;;;;;;5078946;28;20028;-36
2021/08/12 01:29:16;;;;;;;0.88;0.85;;;20.20;59.70;;;;;;5078766;28;20036;-36
2021/08/12 01:32:01;;;;;;;0.98;0.88;;;20.20;59.80;;;;;;5086644;28;20033;-36
2021/08/12 01:34:43;;;;;;;1.15;0.95;;;20.20;59.80;;;;;;5082157;28;20021;-37
2021/08/12 01:37:13;;;;;;;1.00;0.82;;;20.20;60.20;;;;;;5083424;28;20056;-37
2021/08/12 01:39:40;;;;;;;0.95;0.90;;;20.10;59.70;;;;;;5062110;28;20029;-37
2021/08/12 01:42:06;;;;;;;1.02;0.93;;;20.10;59.60;;;;;;5078909;28;20088;-37
2021/08/12 01:44:32;;;;;;;1.63;1.00;;;20.10;59.70;;;;;;5066634;28;20836;-36
2021/08/12 01:46:59;;;;;;;1.00;0.90;;;20.10;59.70;;;;;;5062023;28;20036;-36
2021/08/12 01:49:25;;;;;;;1.17;1.07;;;20.00;59.80;;;;;;5061436;28;20096;-37
2021/08/12 01:51:51;;;;;;;0.90;0.85;;;20.00;60.10;;;;;;5045044;28;20851;-37
2021/08/12 01:54:17;;;;;;;0.95;0.82;;;20.00;60.30;;;;;;5061656;28;20036;-36
2021/08/12 01:56:43;;;;;;;1.10;1.00;;;20.00;60.50;;;;;;5061621;28;20040;-36
2021/08/12 01:59:09;;;;;;;0.80;0.80;;;20.00;60.30;;;;;;5061503;28;20086;-36
2021/08/12 02:01:35;;;;;;;1.05;0.80;;;19.90;60.10;;;;;;5068023;28;20036;-36
2021/08/12 02:04:02;;;;;;;1.02;0.93;;;19.90;60.40;;;;;;5081843;28;20032;-36
2021/08/12 02:06:36;;;;;;;0.98;0.90;;;19.90;60.00;;;;;;5081395;28;20104;-37
2021/08/12 02:09:03;;;;;;;0.93;0.80;;;19.90;59.80;;;;;;5066237;28;20043;-37
2021/08/12 02:11:32;;;;;;;0.90;0.80;;;19.90;59.90;;;;;;5062575;28;20105;-37
2021/08/12 02:13:58;;;;;;;1.00;0.90;;;19.90;59.90;;;;;;5062850;28;20033;-36
2021/08/12 02:16:24;;;;;;;1.00;0.85;;;19.80;59.80;;;;;;5062816;28;20063;-36
2021/08/12 02:18:50;;;;;;;1.05;0.80;;;19.80;59.80;;;;;;5062679;28;20021;-36
2021/08/12 02:21:20;;;;;;;0.95;0.82;;;19.80;60.00;;;;;;5062350;28;20036;-36
2021/08/12 02:24:09;;;;;;;1.17;0.82;;;19.80;60.10;;;;;;5062243;28;20052;-36
2021/08/12 02:26:36;;;;;;;;;;;19.70;60.10;;;;;;5061766;28;20033;-37
2021/08/12 02:29:03;;;;;;;1.10;0.90;;;19.70;61.20;;;;;;5061154;28;19909;-37
2021/08/12 02:31:29;;;;;;;1.02;0.95;;;19.70;60.30;;;;;;5066497;28;20039;-36
2021/08/12 02:33:55;;;;;;;0.85;0.82;;;19.70;61.10;;;;;;5081395;28;20028;-37
2021/08/12 02:36:22;;;;;;;1.20;1.02;;;19.60;60.50;;;;;;5074544;28;20025;-36
2021/08/12 02:38:48;;;;;;;1.00;0.90;;;19.60;61.10;;;;;;5075218;28;20039;-34
2021/08/12 02:41:16;;;;;;;1.20;1.10;;;19.60;60.60;;;;;;5082260;28;20039;-35
2021/08/12 02:43:42;;;;;;;1.15;0.93;;;19.60;60.60;;;;;;5081490;28;20112;-35
2021/08/12 02:46:08;;;;;;;1.27;1.02;;;19.60;60.30;;;;;;5081142;28;20046;-34
2021/08/12 02:48:35;;;;;;;1.02;0.90;;;19.60;60.40;;;;;;5075651;28;20041;-34
2021/08/12 02:51:01;;;;;;;1.08;0.98;;;19.60;60.50;;;;;;5062172;28;20032;-34
2021/08/12 02:53:28;;;;;;;1.33;1.13;;;19.50;60.20;;;;;;5062302;28;20029;-34
2021/08/12 02:55:54;;;;;;;1.42;1.00;;;19.50;60.10;;;;;;5044639;28;20021;-36
2021/08/12 02:58:20;;;;;;;1.23;1.10;;;19.50;60.00;;;;;;5060793;28;20029;-37
2021/08/12 03:00:46;;;;;;;1.58;1.00;;;19.50;60.10;;;;;;5060614;28;20025;-37
2021/08/12 03:03:12;;;;;;;1.63;1.33;;;19.50;60.30;;;;;;5080868;28;20024;-36
2021/08/12 03:05:39;;;;;;;1.13;1.02;;;19.50;60.30;;;;;;5080986;28;20020;-37
2021/08/12 03:08:05;;;;;;;0.95;0.88;;;19.40;60.00;;;;;;5074198;28;20025;-37
2021/08/12 03:10:31;;;;;;;1.05;0.93;;;19.40;60.10;;;;;;5062039;28;20044;-37
2021/08/12 03:12:59;;;;;;;1.05;0.90;;;19.40;60.40;;;;;;5044248;28;20028;-36
2021/08/12 03:15:26;;;;;;;1.17;0.98;;;19.30;60.40;;;;;;5060641;28;20044;-36
2021/08/12 03:17:52;;;;;;;1.10;1.00;;;19.30;60.60;;;;;;5060754;28;20085;-36
2021/08/12 03:20:18;;;;;;;1.10;1.00;;;19.30;61.00;;;;;;5044123;28;20033;-37
2021/08/12 03:22:45;;;;;;;1.13;1.02;;;19.30;60.80;;;;;;5064030;28;20075;-36
2021/08/12 03:25:11;;;;;;;1.17;1.08;;;19.30;61.10;;;;;;5047948;28;20032;-36
2021/08/12 03:27:37;;;;;;;1.35;1.00;;;19.20;60.80;;;;;;5065867;28;20032;-37
2021/08/12 03:30:04;;;;;;;2.10;0.95;;;19.30;60.50;;;;;;5065489;28;20100;-36
2021/08/12 03:32:30;;;;;;;0.98;0.93;;;19.20;60.70;;;;;;5065573;28;20029;-36
2021/08/12 03:34:56;;;;;;;1.10;1.00;;;19.20;60.40;;;;;;5056286;28;20042;-36
2021/08/12 03:37:22;;;;;;;1.15;1.05;;;19.20;60.30;;;;;;5062777;28;20028;-37
2021/08/12 03:39:49;;;;;;;1.40;1.30;;;19.20;61.50;;;;;;5062078;28;20143;-36
2021/08/12 03:42:15;;;;;;;1.20;1.10;;;19.20;62.10;;;;;;5046695;28;20033;-36
2021/08/12 03:44:41;;;;;;;1.13;1.02;;;19.20;62.60;;;;;;5054598;28;20013;-36
2021/08/12 03:47:07;;;;;;;1.35;1.20;;;19.20;62.90;;;;;;5063816;28;20115;-37
2021/08/12 03:49:34;;;;;;;1.02;0.93;;;19.20;62.80;;;;;;5063399;28;20697;-37
2021/08/12 03:52:00;;;;;;;1.10;1.00;;;19.20;62.60;;;;;;5063579;28;20063;-36
2021/08/12 03:54:26;;;;;;;2.00;1.00;;;19.20;62.70;;;;;;5064794;28;20033;-37
2021/08/12 03:56:52;;;;;;;1.17;1.00;;;19.30;62.50;;;;;;5064974;28;20021;-37
2021/08/12 03:59:21;;;;;;;1.05;0.98;;;19.30;63.00;;;;;;5065268;28;20053;-37
2021/08/12 04:01:47;;;;;;;1.42;1.02;;;19.30;63.10;;;;;;5064682;28;20025;-36
2021/08/12 04:04:13;;;;;;;1.10;1.00;;;19.40;63.10;;;;;;5083553;28;20028;-37
2021/08/12 04:06:39;;;;;;;1.10;1.00;;;19.40;63.10;;;;;;5085065;28;20017;-36
2021/08/12 04:09:05;;;;;;;1.15;1.05;;;19.40;63.10;;;;;;5082488;28;20649;-37
2021/08/12 04:11:31;;;;;;;2.17;1.20;;;19.40;63.20;;;;;;5066899;28;20039;-36
2021/08/12 04:13:57;;;;;;;1.63;1.40;;;19.40;63.30;;;;;;5064803;28;20025;-37
2021/08/12 04:16:23;;;;;;;1.40;1.20;;;19.50;63.40;;;;;;5063580;28;20089;-37
2021/08/12 04:18:50;;;;;;;1.10;1.00;;;19.50;63.30;;;;;;5063910;28;20524;-36
2021/08/12 04:21:16;;;;;;;1.20;1.10;;;19.50;63.20;;;;;;5073669;28;20028;-37
2021/08/12 04:23:42;;;;;;;1.35;1.25;;;19.50;63.10;;;;;;5078077;28;20061;-35
2021/08/12 04:26:10;;;;;;;1.65;1.10;;;19.50;63.00;;;;;;5064542;28;20156;-35
2021/08/12 04:28:36;;;;;;;1.73;1.30;;;19.50;63.10;;;;;;5064335;28;20029;-34
2021/08/12 04:31:02;;;;;;;1.40;1.30;;;19.60;63.20;;;;;;5064686;28;20037;-35
2021/08/12 04:33:30;;;;;;;1.30;1.10;;;19.60;63.20;;;;;;5065881;28;20029;-35
2021/08/12 04:35:56;;;;;;;;;;;19.60;63.40;;;;;;5064588;28;20044;-36
2021/08/12 04:38:22;;;;;;;1.40;1.25;;;19.60;63.40;;;;;;5072791;28;19932;-36
2021/08/12 04:40:49;;;;;;;1.42;1.33;;;19.60;63.20;;;;;;5067150;28;20136;-37
2021/08/12 04:43:15;;;;;;;1.40;1.30;;;19.70;63.50;;;;;;5063675;28;20029;-36
2021/08/12 04:45:41;;;;;;;1.75;1.25;;;19.70;63.60;;;;;;5064274;28;20920;-38
2021/08/12 04:48:07;;;;;;;1.15;1.05;;;19.70;63.40;;;;;;5064280;28;20033;-37
2021/08/12 04:50:38;;;;;;;1.35;1.23;;;19.80;63.70;;;;;;5063826;28;20069;-37
2021/08/12 04:53:04;;;;;;;1.45;1.20;;;19.80;63.60;;;;;;5063697;28;20040;-36
2021/08/12 04:55:31;;;;;;;1.58;1.27;;;19.80;63.70;;;;;;5063944;28;20096;-36
2021/08/12 04:57:57;;;;;;;1.02;0.90;;;19.80;63.70;;;;;;5063749;28;20080;-37
2021/08/12 05:00:23;;;;;;;1.30;1.10;;;19.80;63.60;;;;;;5064006;28;20029;-37
2021/08/12 05:02:50;;;;;;;2.20;1.35;;;19.80;63.50;;;;;;5072943;28;20477;-37
2021/08/12 05:05:16;;;;;;;1.42;1.33;;;19.90;63.40;;;;;;5083894;28;20024;-37
2021/08/12 05:07:43;;;;;;;1.93;1.43;;;19.90;63.40;;;;;;5080139;28;20025;-37
2021/08/12 05:10:09;;;;;;;1.45;1.30;;;19.90;63.40;;;;;;5063846;28;20485;-37
2021/08/12 05:12:35;;;;;;;1.47;1.30;;;19.90;63.30;;;;;;5069629;28;20500;-36
2021/08/12 05:15:02;;;;;;;2.10;1.35;;;19.90;63.30;;;;;;5070538;28;20041;-37
2021/08/12 05:17:28;;;;;;;1.58;1.30;;;19.90;63.30;;;;;;5063664;28;20044;-37
2021/08/12 05:19:54;;;;;;;2.03;1.58;;;20.00;63.40;;;;;;5063601;28;20032;-37
2021/08/12 05:22:21;;;;;;;1.63;1.50;;;20.00;63.30;;;;;;5062856;28;20068;-37
2021/08/12 05:24:47;;;;;;;;;;;20.00;63.70;;;;;;5062516;28;20084;-37
2021/08/12 05:27:13;;;;;;;2.08;1.38;;;20.00;63.80;;;;;;5095391;28;19962;-37
2021/08/12 05:29:39;;;;;;;1.67;1.50;;;20.00;63.80;;;;;;5063424;28;20033;-37
2021/08/12 05:32:06;;;;;;;1.60;1.50;;;20.00;63.70;;;;;;5065890;28;20040;-37
2021/08/12 05:34:32;;;;;;;1.60;1.50;;;20.10;63.80;;;;;;5067583;28;20029;-37
2021/08/12 05:37:01;;;;;;;1.92;1.50;;;20.10;63.80;;;;;;5063279;28;20043;-36
2021/08/12 05:39:27;;;;;;;1.85;1.65;;;20.10;63.90;;;;;;5078077;28;20018;-37
2021/08/12 05:41:53;;;;;;;2.37;1.73;;;20.10;63.90;;;;;;5082835;28;20024;-37
2021/08/12 05:44:20;;;;;;;2.70;1.67;;;20.10;63.80;;;;;;5082299;28;20021;-37
2021/08/12 05:46:46;;;;;;;1.70;1.60;;;20.10;63.70;;;;;;5082676;28;20029;-37
2021/08/12 05:49:12;;;;;;;1.75;1.65;;;20.10;63.50;;;;;;5079739;28;20020;-35
2021/08/12 05:51:38;;;;;;;1.75;1.55;;;20.10;63.20;;;;;;5061289;28;20037;-37
2021/08/12 05:54:08;;;;;;;1.80;1.70;;;20.20;63.40;;;;;;5062688;28;20654;-37
2021/08/12 05:56:35;;;;;;;2.00;1.80;;;20.20;63.30;;;;;;5062622;28;20033;-37
2021/08/12 05:59:02;;;;;;;1.80;1.40;;;20.20;63.30;;;;;;5062846;28;20036;-37
2021/08/12 06:01:28;;;;;;;1.83;1.65;;;20.20;63.20;;;;;;5049857;28;20026;-37
2021/08/12 06:03:55;;;;;;;1.60;1.50;;;20.20;63.20;;;;;;5078671;28;20072;-36
2021/08/12 06:06:21;;;;;;;2.03;1.40;;;20.20;63.40;;;;;;5082635;28;20273;-36
2021/08/12 06:08:47;;;;;;;1.85;1.67;;;20.20;63.50;;;;;;5069947;28;20079;-37
2021/08/12 06:11:13;;;;;;;2.17;1.70;;;20.30;63.60;;;;;;5062429;28;20132;-37
2021/08/12 06:13:39;;;;;;;2.03;1.80;;;20.30;63.70;;;;;;5061823;28;20470;-37
2021/08/12 06:16:06;;;;;;;2.70;1.77;;;20.30;63.70;;;;;;5062404;28;20033;-35
2021/08/12 06:18:33;;;;;;;1.70;1.42;;;20.30;63.80;;;;;;5061047;28;20033;-37
2021/08/12 06:20:59;;;;;;;1.80;1.65;;;20.30;63.60;;;;;;5062555;28;20041;-37
2021/08/12 06:23:25;;;;;;;1.90;1.52;;;20.30;63.50;;;;;;5062017;28;20052;-37
2021/08/12 06:25:51;;;;;;;2.13;1.88;;;20.30;63.40;;;;;;5062341;28;20111;-37
2021/08/12 06:28:17;;;;;;;1.80;1.50;;;20.30;63.40;;;;;;5061891;28;20025;-37
2021/08/12 06:30:44;;;;;;;2.13;1.70;;;20.40;63.40;;;;;;5062381;28;20047;-37
2021/08/12 06:33:10;;;;;;;1.67;1.58;;;20.40;63.30;;;;;;5050229;28;20025;-37
2021/08/12 06:35:36;;;;;;;2.10;1.90;;;20.40;63.20;;;;;;5048076;28;20036;-37
2021/08/12 06:38:03;;;;;;;1.90;1.75;;;20.40;63.20;;;;;;5068144;28;20024;-38
2021/08/12 06:40:30;;;;;;;2.42;2.10;;;20.40;63.20;;;;;;5078943;28;20512;-37
2021/08/12 06:42:56;;;;;;;1.65;1.42;;;20.40;63.20;;;;;;5082296;28;20032;-37
2021/08/12 06:45:24;;;;;;;3.15;1.75;;;20.40;63.20;;;;;;5081118;28;20033;-37
2021/08/12 06:47:50;;;;;;;1.85;1.63;;;20.40;63.40;;;;;;5081931;28;20035;-37
2021/08/12 06:50:17;;;;;;;1.90;1.70;;;20.50;63.60;;;;;;5082469;28;20036;-37
2021/08/12 06:52:43;;;;;;;2.10;1.80;;;20.50;63.80;;;;;;5082225;28;20060;-36
2021/08/12 06:55:10;;;;;;;2.00;1.80;;;20.50;63.80;;;;;;5082152;28;20088;-37
2021/08/12 06:57:36;;;;;;;2.03;1.90;;;20.50;63.80;;;;;;5085535;28;20087;-37
2021/08/12 07:00:03;;;;;;;2.97;1.95;;;20.50;63.90;;;;;;5086198;28;20047;-37
2021/08/12 07:02:30;;;;;;;2.75;1.80;;;20.50;63.90;;;;;;5079885;28;20025;-37
2021/08/12 07:04:56;;;;;;;1.80;1.70;;;20.50;63.80;;;;;;5066192;28;20048;-37
2021/08/12 07:07:22;;;;;;;2.42;2.00;;;20.50;63.80;;;;;;5066740;28;20021;-37
2021/08/12 07:09:50;;;;;;;2.97;2.00;;;20.50;63.70;;;;;;5074108;28;20045;-37
2021/08/12 07:12:16;;;;;;;2.10;1.90;;;20.50;63.70;;;;;;5065862;28;20102;-37
2021/08/12 07:14:42;;;;;;;2.53;1.92;;;20.50;63.70;;;;;;5065222;28;20029;-37
2021/08/12 07:17:09;;;;;;;2.45;1.88;;;20.50;63.60;;;;;;5065899;28;20060;-37
2021/08/12 07:19:35;;;;;;;2.20;1.75;;;20.60;63.80;;;;;;5065654;28;20032;-37
2021/08/12 07:22:01;;;;;;;1.90;1.70;;;20.60;63.70;;;;;;5065330;28;20179;-37
2021/08/12 07:24:27;;;;;;;1.92;1.55;;;20.60;63.80;;;;;;5065455;28;20059;-37
2021/08/12 07:26:53;;;;;;;2.60;1.95;;;20.60;63.70;;;;;;5065424;28;20063;-38
2021/08/12 07:29:19;;;;;;;1.88;1.77;;;20.60;63.80;;;;;;5065655;28;20436;-37
2021/08/12 07:31:46;;;;;;;1.98;1.52;;;20.60;63.80;;;;;;5065189;28;20036;-37
2021/08/12 07:34:12;;;;;;;1.92;1.73;;;20.60;63.90;;;;;;5049833;28;20059;-37
2021/08/12 07:36:38;;;;;;;2.10;1.80;;;20.60;64.00;;;;;;5069059;28;20033;-37
2021/08/12 07:39:05;;;;;;;2.10;1.90;;;20.60;64.00;;;;;;5079924;28;20093;-37
2021/08/12 07:41:34;;;;;;;2.60;1.67;;;20.70;64.10;;;;;;5072430;28;20029;-37
2021/08/12 07:44:03;;;;;;;2.40;1.90;;;20.70;64.10;;;;;;5065368;28;20027;-37
2021/08/12 07:46:30;;;;;;;2.05;1.90;;;20.70;64.00;;;;;;5065308;28;20024;-37
2021/08/12 07:48:56;;;;;;;2.45;2.03;;;20.70;64.00;;;;;;5065042;28;20029;-38
2021/08/12 07:51:25;;;;;;;2.17;1.98;;;20.70;63.90;;;;;;5065089;28;20067;-37
2021/08/12 07:53:52;;;;;;;2.42;2.05;;;20.70;63.90;;;;;;5064780;28;20071;-37
2021/08/12 07:56:18;;;;;;;1.98;1.77;;;20.70;63.90;;;;;;5065146;28;20028;-37
2021/08/12 07:58:44;;;;;;;2.13;1.83;;;20.70;63.90;;;;;;5063404;28;20440;-37
2021/08/12 08:01:10;;;;;;;2.10;1.90;;;20.70;63.90;;;;;;5065168;28;20316;-37
2021/08/12 08:03:36;;;;;;;1.88;1.70;;;20.70;64.60;;;;;;5067554;28;20029;-37
2021/08/12 08:06:03;;;;;;;1.85;1.70;;;20.70;63.90;;;;;;5064863;28;20038;-37
2021/08/12 08:08:29;;;;;;;2.20;2.00;;;20.70;63.90;;;;;;5073012;28;20028;-38
2021/08/12 08:10:55;;;;;;;2.33;1.70;;;20.70;63.90;;;;;;5064269;28;20413;-37
2021/08/12 08:13:21;;;;;;;2.45;1.98;;;20.70;64.00;;;;;;5064648;28;20036;-37
2021/08/12 08:15:47;;;;;;;2.10;1.90;;;20.80;64.10;;;;;;5064741;28;20065;-37
2021/08/12 08:18:13;;;;;;;2.53;1.95;;;20.80;64.10;;;;;;5064499;28;20021;-38
2021/08/12 08:20:40;;;;;;;2.03;1.83;;;20.80;64.10;;;;;;5064782;28;20033;-37
2021/08/12 08:23:07;;;;;;;2.35;1.98;;;20.80;64.20;;;;;;5064236;28;20065;-37
2021/08/12 08:25:34;;;;;;;1.85;1.67;;;20.80;64.20;;;;;;5064383;28;20108;-37
2021/08/12 08:28:01;;;;;;;3.00;2.00;;;20.80;64.20;;;;;;5064138;28;20036;-37
2021/08/12 08:30:27;;;;;;;2.22;1.73;;;20.80;64.20;;;;;;5067175;28;20037;-37
2021/08/12 08:32:53;;;;;;;2.73;2.07;;;20.80;64.20;;;;;;5058971;28;20060;-37
2021/08/12 08:35:20;;;;;;;2.42;2.13;;;20.80;64.20;;;;;;5044578;28;20037;-37
2021/08/12 08:37:46;;;;;;;2.72;2.15;;;20.80;64.20;;;;;;5059144;28;20131;-37
2021/08/12 08:40:12;;;;;;;2.88;2.10;;;20.80;64.10;;;;;;5064088;28;20029;-37
2021/08/12 08:42:39;;;;;;;3.50;1.70;;;20.80;64.10;;;;;;5064316;28;20032;-38
2021/08/12 08:45:05;;;;;;;2.70;2.10;;;20.80;64.20;;;;;;5062907;28;20040;-37
2021/08/12 08:47:31;;;;;;;1.90;1.70;;;20.80;64.20;;;;;;5064192;28;20111;-37
2021/08/12 08:49:57;;;;;;;3.13;1.83;;;20.80;64.20;;;;;;5063608;28;20738;-37
2021/08/12 08:52:24;;;;;;;1.92;1.67;;;20.80;64.10;;;;;;5060784;28;20036;-35
2021/08/12 08:54:50;;;;;;;2.20;2.00;;;20.80;64.20;;;;;;5044118;28;20036;-36
2021/08/12 08:57:16;;;;;;;2.05;1.65;;;20.90;64.20;;;;;;5075935;28;20048;-35
2021/08/12 08:59:42;;;;;;;2.40;1.80;;;20.90;64.20;;;;;;5042483;28;20108;-35
2021/08/12 09:02:09;;;;;;;2.00;1.90;;;20.90;64.20;;;;;;5042718;28;20057;-37
2021/08/12 09:04:35;;;;;;;2.70;1.90;;;20.90;64.30;;;;;;5044070;28;20022;-37
2021/08/12 09:07:07;;;;;;;2.28;2.08;;;20.90;65.10;;;;;;5044092;28;20029;-37
2021/08/12 09:09:34;;;;;;;2.22;2.00;;;20.90;64.40;;;;;;5081368;28;20028;-37
2021/08/12 09:12:01;;;;;;;2.42;2.22;;;20.90;64.60;;;;;;5084008;28;20389;-37
2021/08/12 09:14:42;;;;;;;2.03;1.75;;;20.90;64.60;;;;;;5083742;28;20063;-37
2021/08/12 09:17:24;;;;;;;4.55;1.90;;;20.90;64.60;;;;;;5082391;28;20028;-37
2021/08/12 09:20:10;;;;;;;2.17;1.90;;;20.90;64.60;;;;;;5082045;28;20036;-37
2021/08/12 09:22:49;;;;;;;2.40;2.20;;;20.90;64.60;;;;;;5083268;28;20112;-41
2021/08/12 09:25:15;;;;;;;2.92;2.03;;;20.90;64.60;;;;;;5083467;28;20036;-37
2021/08/12 09:27:42;;;;;;;1.80;1.70;;;20.90;64.60;;;;;;5080451;28;20135;-37
2021/08/12 09:30:10;;;;;;;2.08;1.55;;;20.90;64.60;;;;;;5078155;28;20052;-37
2021/08/12 09:32:54;;;;;;;2.05;1.90;;;20.90;65.30;;;;;;5063499;28;20029;-37
2021/08/12 09:35:24;;;;;;;2.72;2.10;;;21.00;64.60;;;;;;5063354;28;20029;-37
2021/08/12 09:37:51;;;;;;;2.17;1.98;;;21.00;64.60;;;;;;5066570;28;20095;-37
2021/08/12 09:40:23;;;;;;;2.58;1.90;;;21.00;64.50;;;;;;5081884;28;20024;-38
2021/08/12 09:42:57;;;;;;;2.10;1.90;;;21.00;64.50;;;;;;5083299;28;20051;-38
2021/08/12 09:45:26;;;;;;;2.70;1.67;;;21.00;64.50;;;;;;5083274;28;20032;-37
2021/08/12 09:47:53;;;;;;;2.65;1.77;;;21.00;64.60;;;;;;5081767;28;20030;-38
2021/08/12 09:50:24;;;;;;;2.65;1.73;;;21.00;64.60;;;;;;5082836;28;20040;-38
2021/08/12 09:52:50;;;;;;;1.90;1.70;;;21.00;64.50;;;;;;5083075;28;20051;-37
2021/08/12 09:55:23;;;;;;;2.28;2.08;;;21.00;64.60;;;;;;5083005;28;20028;-37
2021/08/12 09:57:51;;;;;;;2.08;1.88;;;21.00;64.60;;;;;;5082961;28;20073;-38
2021/08/12 10:00:35;;;;;;;2.13;1.92;;;21.00;64.60;;;;;;5082779;28;20024;-35
2021/08/12 10:03:01;;;;;;;2.20;2.00;;;21.00;64.60;;;;;;5082932;28;20028;-35
2021/08/12 10:05:28;;;;;;;2.47;1.88;;;21.00;64.70;;;;;;5071759;28;20089;-35
2021/08/12 10:07:55;;;;;;;2.80;2.15;;;21.00;64.70;;;;;;5053545;28;20059;-36
2021/08/12 10:10:22;;;;;;;2.15;1.92;;;21.00;64.60;;;;;;5082646;28;20116;-36
2021/08/12 10:12:58;;;;;;;2.10;1.80;;;21.00;64.70;;;;;;5082844;28;20053;-35
2021/08/12 10:15:28;;;;;;;2.20;2.00;;;21.00;64.70;;;;;;5082872;28;20021;-35
2021/08/12 10:17:56;;;;;;;2.83;2.28;;;21.00;64.70;;;;;;5082701;28;20040;-36
2021/08/12 10:20:23;;;;;;;2.97;1.83;;;21.00;64.80;;;;;;5080963;28;20029;-35
2021/08/12 10:22:51;;;;;;;2.33;1.98;;;21.00;64.70;;;;;;5082560;28;20041;-35
2021/08/12 10:25:17;;;;;;;2.17;1.98;;;21.00;64.70;;;;;;5082668;28;20024;-38
2021/08/12 10:27:45;;;;;;;2.00;1.77;;;21.00;64.70;;;;;;5082682;28;20036;-38
2021/08/12 10:30:11;;;;;;;2.17;1.90;;;21.00;64.80;;;;;;5081202;28;20794;-38
2021/08/12 10:32:40;;;;;;;2.38;1.92;;;21.00;64.70;;;;;;5082570;28;20742;-37
2021/08/12 10:35:07;;;;;;;2.20;2.00;;;21.00;64.70;;;;;;5077408;28;20032;-38
2021/08/12 10:37:33;;;;;;;2.17;1.98;;;21.00;64.80;;;;;;5066779;28;20028;-35
2021/08/12 10:39:59;;;;;;;2.28;2.00;;;21.00;64.70;;;;;;5062917;28;20051;-35
2021/08/12 10:42:25;;;;;;;2.13;1.80;;;21.10;64.80;;;;;;5080350;28;20473;-35
2021/08/12 10:44:51;;;;;;;2.72;2.17;;;21.10;64.70;;;;;;5081068;28;20029;-36
2021/08/12 10:47:42;;;;;;;2.05;1.85;;;21.10;64.80;;;;;;5081207;28;20574;-36
2021/08/12 10:50:23;;;;;;;2.65;2.10;;;21.10;64.90;;;;;;5076761;28;20152;-36
2021/08/12 10:53:07;;;;;;;2.00;1.80;;;21.10;64.80;;;;;;5082593;28;20024;-36
2021/08/12 10:55:34;;;;;;;3.42;2.08;;;21.10;64.80;;;;;;5082259;28;20029;-35
2021/08/12 10:58:28;;;;;;;2.85;1.95;;;21.10;64.90;;;;;;5082415;28;20112;-35
2021/08/12 11:00:56;;;;;;;2.00;1.80;;;21.10;64.90;;;;;;5082082;28;20111;-35
2021/08/12 11:03:34;;;;;;;2.28;2.08;;;21.10;64.90;;;;;;5082465;28;20086;-36
2021/08/12 11:06:07;;;;;;;1.80;1.70;;;21.10;64.90;;;;;;5082186;28;20035;-36
2021/08/12 11:08:53;;;;;;;2.03;1.83;;;21.10;64.90;;;;;;5071474;28;20027;-36
2021/08/12 11:11:28;;;;;;;1.88;1.77;;;21.10;64.90;;;;;;5062071;28;20100;-37
2021/08/12 11:14:02;;;;;;;1.92;1.73;;;21.10;64.90;;;;;;5062122;28;20056;-37
2021/08/12 11:16:58;;;;;;;2.03;1.83;;;21.10;64.90;;;;;;5062121;28;20029;-37
2021/08/12 11:19:24;;;;;;;1.80;1.70;;;21.10;64.90;;;;;;5052197;28;20587;-37
2021/08/12 11:21:50;;;;;;;2.15;1.85;;;21.10;64.90;;;;;;5061773;28;20052;-38
2021/08/12 11:24:23;;;;;;;1.90;1.50;;;21.10;64.90;;;;;;5062217;28;20063;-38
2021/08/12 11:26:49;;;;;;;3.03;1.80;;;21.10;64.90;;;;;;5061903;28;20101;-37
2021/08/12 11:29:35;;;;;;;1.90;1.80;;;21.10;64.90;;;;;;5062011;28;20025;-38
2021/08/12 11:32:08;;;;;;;2.17;1.98;;;21.10;64.80;;;;;;5061927;28;20043;-38
2021/08/12 11:34:36;;;;;;;2.17;1.98;;;21.10;64.90;;;;;;5062091;28;20028;-38
2021/08/12 11:37:09;;;;;;;1.90;1.70;;;21.10;64.90;;;;;;5060716;28;20065;-37
2021/08/12 11:40:07;;;;;;;2.80;1.90;;;21.10;64.90;;;;;;5068252;28;20017;-38
2021/08/12 11:42:40;;;;;;;2.50;1.65;;;21.10;64.90;;;;;;5061886;28;20029;-37
2021/08/12 11:45:08;;;;;;;1.85;1.75;;;21.10;64.90;;;;;;5065655;28;20029;-36
2021/08/12 11:47:34;;;;;;;1.70;1.60;;;21.10;64.90;;;;;;5065531;28;20063;-35
2021/08/12 11:50:01;;;;;;;2.00;1.60;;;21.10;64.90;;;;;;5065513;28;20103;-35
2021/08/12 11:52:32;;;;;;;1.92;1.83;;;21.10;64.90;;;;;;5065370;28;20052;-35
2021/08/12 11:55:01;;;;;;;1.70;1.60;;;21.10;64.90;;;;;;5065194;28;20035;-37
2021/08/12 11:57:45;;;;;;;2.30;2.10;;;21.20;64.90;;;;;;5065420;28;20552;-38
2021/08/12 12:00:19;;;;;;;1.80;1.70;;;21.20;64.90;;;;;;5063768;28;20028;-35
2021/08/12 12:02:46;;;;;;;3.00;2.20;;;21.20;64.90;;;;;;5065176;28;20021;-36
2021/08/12 12:05:13;;;;;;;2.45;1.90;;;21.20;64.90;;;;;;5063750;28;20025;-35
2021/08/12 12:07:46;;;;;;;2.08;1.75;;;21.20;65.40;;;;;;5065442;28;20033;-36
2021/08/12 12:10:21;;;;;;;2.90;1.80;;;21.20;64.90;;;;;;5085070;28;20505;-35
2021/08/12 12:12:47;;;;;;;2.10;1.67;;;21.20;64.90;;;;;;5084423;28;20095;-37
2021/08/12 12:15:30;;;;;;;2.70;2.05;;;21.20;64.90;;;;;;5085037;28;20028;-38
2021/08/12 12:17:56;;;;;;;2.60;1.83;;;21.20;64.90;;;;;;5083824;28;20025;-38
2021/08/12 12:20:24;;;;;;;1.70;1.60;;;21.20;64.90;;;;;;5083690;28;20035;-37
2021/08/12 12:23:00;;;;;;;2.42;1.77;;;21.20;64.90;;;;;;5083204;28;20059;-37
2021/08/12 12:25:30;;;;;;;3.15;2.30;;;21.20;64.90;;;;;;5084803;28;20025;-37
2021/08/12 12:27:57;;;;;;;2.33;1.70;;;21.20;64.90;;;;;;5083164;28;20036;-38
2021/08/12 12:30:24;;;;;;;2.20;1.88;;;21.20;64.80;;;;;;5084838;28;20028;-37
2021/08/12 12:33:10;;;;;;;;;;;21.20;64.90;;;;;;5085230;28;20037;-37
2021/08/12 12:35:40;;;;;;;2.50;1.80;;;21.20;64.80;;;;;;5084630;28;19909;-37
2021/08/12 12:38:08;;;;;;;1.85;1.70;;;21.20;64.90;;;;;;5077830;28;20112;-35
2021/08/12 12:40:35;;;;;;;2.17;1.98;;;21.20;64.90;;;;;;5084585;28;20618;-37
2021/08/12 12:43:01;;;;;;;;;;;21.20;65.70;;;;;;5074595;28;20024;-37
2021/08/12 12:45:28;;;;;;;2.30;1.92;;;21.20;65.00;;;;;;5069212;28;19915;-37
2021/08/12 12:48:06;;;;;;;2.07;1.87;;;21.20;65.00;;;;;;5084470;28;20033;-37
2021/08/12 12:50:49;;;;;;;2.08;1.88;;;21.20;65.00;;;;;;5073965;28;20163;-37
2021/08/12 12:53:30;;;;;;;1.50;1.40;;;21.20;65.10;;;;;;5063820;28;20094;-38
2021/08/12 12:55:57;;;;;;;1.73;1.63;;;21.20;65.20;;;;;;5064417;28;20029;-37